sensor_id;sensor_type;location;lat;lon;timestamp;pressure;altitude;pressure_sealevel;temperature;humidity
50774;BME280;36745;48.544;8.918;2023-08-31T00:01:12;96861.50;;;14.13;100.00
50774;BME280;36745;48.544;8.918;2023-08-31T00:04:33;96850.69;;;14.15;100.00
50774;BME280;36745;48.544;8.918;2023-08-31T00:07:53;96843.16;;;14.15;100.00
50774;BME280;36745;48.544;8.918;2023-08-31T00:11:13;96852.53;;;14.18;100.00
50774;BME280;36745;48.544;8.918;2023-08-31T00:14:34;96857.50;;;14.14;100.00
50774;BME280;36745;48.544;8.918;2023-08-31T00:17:54;96863.03;;;14.14;100.00
50774;BME280;36745;48.544;8.918;2023-08-31T00:21:14;96865.88;;;14.05;100.00
50774;BME280;36745;48.544;8.918;2023-08-31T00:24:34;96862.81;;;14.03;100.00
50774;BME280;36745;48.544;8.918;2023-08-31T00:27:56;96865.28;;;14.01;100.00
50774;BME280;36745;48.544;8.918;2023-08-31T00:31:16;96860.72;;;13.98;100.00
50774;BME280;36745;48.544;8.918;2023-08-31T00:34:36;96865.19;;;13.95;100.00
50774;BME280;36745;48.544;8.918;2023-08-31T00:37:57;96859.19;;;13.97;100.00
50774;BME280;36745;48.544;8.918;2023-08-31T00:41:17;96852.66;;;14.00;100.00
50774;BME280;36745;48.544;8.918;2023-08-31T00:44:37;96862.22;;;13.99;100.00
50774;BME280;36745;48.544;8.918;2023-08-31T00:47:57;96866.59;;;13.91;100.00
50774;BME280;36745;48.544;8.918;2023-08-31T00:51:17;96867.53;;;13.87;100.00
50774;BME280;36745;48.544;8.918;2023-08-31T00:54:36;96855.72;;;13.87;100.00
50774;BME280;36745;48.544;8.918;2023-08-31T00:57:59;96846.34;;;13.84;100.00
50774;BME280;36745;48.544;8.918;2023-08-31T01:01:30;96856.53;;;13.78;100.00
50774;BME280;36745;48.544;8.918;2023-08-31T01:05:03;96857.94;;;13.74;100.00
50774;BME280;36745;48.544;8.918;2023-08-31T01:12:10;96872.03;;;13.61;100.00
50774;BME280;36745;48.544;8.918;2023-08-31T01:15:31;96873.91;;;13.55;100.00
50774;BME280;36745;48.544;8.918;2023-08-31T01:18:52;96878.88;;;13.51;100.00
50774;BME280;36745;48.544;8.918;2023-08-31T01:22:18;96873.38;;;13.42;100.00
50774;BME280;36745;48.544;8.918;2023-08-31T01:25:40;96873.72;;;13.35;100.00
50774;BME280;36745;48.544;8.918;2023-08-31T01:29:02;96877.78;;;13.25;100.00
50774;BME280;36745;48.544;8.918;2023-08-31T01:32:23;96887.03;;;13.13;100.00
50774;BME280;36745;48.544;8.918;2023-08-31T01:35:48;96896.91;;;13.04;100.00
50774;BME280;36745;48.544;8.918;2023-08-31T01:39:23;96904.59;;;13.00;100.00
50774;BME280;36745;48.544;8.918;2023-08-31T01:42:46;96900.00;;;12.97;100.00
50774;BME280;36745;48.544;8.918;2023-08-31T01:46:07;96885.56;;;12.93;100.00
50774;BME280;36745;48.544;8.918;2023-08-31T01:49:26;96888.00;;;12.91;100.00
50774;BME280;36745;48.544;8.918;2023-08-31T01:52:46;96896.94;;;12.86;100.00
50774;BME280;36745;48.544;8.918;2023-08-31T01:56:06;96897.13;;;12.83;100.00
50774;BME280;36745;48.544;8.918;2023-08-31T01:59:26;96901.59;;;12.71;100.00
50774;BME280;36745;48.544;8.918;2023-08-31T02:02:47;96882.88;;;12.66;100.00
50774;BME280;36745;48.544;8.918;2023-08-31T02:06:06;96898.88;;;12.62;100.00
50774;BME280;36745;48.544;8.918;2023-08-31T02:09:26;96905.31;;;12.59;100.00
50774;BME280;36745;48.544;8.918;2023-08-31T02:12:46;96917.31;;;12.56;100.00
50774;BME280;36745;48.544;8.918;2023-08-31T02:16:05;96918.38;;;12.49;100.00
50774;BME280;36745;48.544;8.918;2023-08-31T02:19:25;96911.16;;;12.43;100.00
50774;BME280;36745;48.544;8.918;2023-08-31T02:22:45;96907.19;;;12.44;100.00
50774;BME280;36745;48.544;8.918;2023-08-31T02:26:05;96904.41;;;12.44;100.00
50774;BME280;36745;48.544;8.918;2023-08-31T02:29:25;96902.28;;;12.39;100.00
50774;BME280;36745;48.544;8.918;2023-08-31T02:32:45;96908.72;;;12.36;100.00
50774;BME280;36745;48.544;8.918;2023-08-31T02:36:05;96909.63;;;12.33;100.00
50774;BME280;36745;48.544;8.918;2023-08-31T02:39:24;96911.47;;;12.27;100.00
50774;BME280;36745;48.544;8.918;2023-08-31T02:42:44;96921.00;;;12.26;100.00
50774;BME280;36745;48.544;8.918;2023-08-31T02:46:04;96918.84;;;12.20;100.00
50774;BME280;36745;48.544;8.918;2023-08-31T02:49:24;96923.75;;;12.16;100.00
50774;BME280;36745;48.544;8.918;2023-08-31T02:52:44;96933.59;;;12.08;100.00
50774;BME280;36745;48.544;8.918;2023-08-31T02:56:04;96923.63;;;12.02;100.00
50774;BME280;36745;48.544;8.918;2023-08-31T02:59:24;96920.69;;;11.96;100.00
50774;BME280;36745;48.544;8.918;2023-08-31T03:02:44;96927.13;;;11.93;100.00
50774;BME280;36745;48.544;8.918;2023-08-31T03:06:03;96932.03;;;11.89;100.00
50774;BME280;36745;48.544;8.918;2023-08-31T03:09:23;96922.38;;;11.85;100.00
50774;BME280;36745;48.544;8.918;2023-08-31T03:12:43;96926.50;;;11.89;100.00
50774;BME280;36745;48.544;8.918;2023-08-31T03:16:03;96938.31;;;11.90;100.00
50774;BME280;36745;48.544;8.918;2023-08-31T03:19:22;96924.97;;;11.88;100.00
50774;BME280;36745;48.544;8.918;2023-08-31T03:22:42;96923.44;;;11.87;100.00
50774;BME280;36745;48.544;8.918;2023-08-31T03:26:08;96923.44;;;11.87;100.00
50774;BME280;36745;48.544;8.918;2023-08-31T03:29:28;96930.81;;;11.90;100.00
50774;BME280;36745;48.544;8.918;2023-08-31T03:32:48;96930.34;;;11.92;100.00
50774;BME280;36745;48.544;8.918;2023-08-31T03:36:08;96932.66;;;11.93;100.00
50774;BME280;36745;48.544;8.918;2023-08-31T03:39:28;96937.88;;;12.00;100.00
50774;BME280;36745;48.544;8.918;2023-08-31T03:42:49;96940.63;;;12.09;100.00
50774;BME280;36745;48.544;8.918;2023-08-31T03:46:09;96931.78;;;12.14;100.00
50774;BME280;36745;48.544;8.918;2023-08-31T03:49:28;96932.06;;;12.07;100.00
50774;BME280;36745;48.544;8.918;2023-08-31T03:52:49;96928.06;;;12.08;100.00
50774;BME280;36745;48.544;8.918;2023-08-31T03:56:09;96935.13;;;12.09;100.00
50774;BME280;36745;48.544;8.918;2023-08-31T03:59:29;96940.63;;;12.09;100.00
50774;BME280;36745;48.544;8.918;2023-08-31T04:02:48;96950.94;;;12.09;100.00
50774;BME280;36745;48.544;8.918;2023-08-31T04:06:08;96957.22;;;12.09;100.00
50774;BME280;36745;48.544;8.918;2023-08-31T04:09:28;96958.75;;;12.10;100.00
50774;BME280;36745;48.544;8.918;2023-08-31T04:12:49;96960.91;;;12.15;100.00
50774;BME280;36745;48.544;8.918;2023-08-31T04:16:09;96964.44;;;12.16;100.00
50774;BME280;36745;48.544;8.918;2023-08-31T04:19:29;96954.78;;;12.11;100.00
50774;BME280;36745;48.544;8.918;2023-08-31T04:22:49;96957.09;;;12.13;100.00
50774;BME280;36745;48.544;8.918;2023-08-31T04:26:12;96959.41;;;12.14;100.00
50774;BME280;36745;48.544;8.918;2023-08-31T04:29:32;96961.69;;;12.16;100.00
50774;BME280;36745;48.544;8.918;2023-08-31T04:32:51;96971.19;;;12.15;100.00
50774;BME280;36745;48.544;8.918;2023-08-31T04:36:11;96978.41;;;12.12;100.00
50774;BME280;36745;48.544;8.918;2023-08-31T04:39:31;96966.59;;;12.12;100.00
50774;BME280;36745;48.544;8.918;2023-08-31T04:42:51;96974.72;;;12.06;100.00
50774;BME280;36745;48.544;8.918;2023-08-31T04:46:11;96970.41;;;11.96;100.00
50774;BME280;36745;48.544;8.918;2023-08-31T04:49:31;96976.84;;;11.93;100.00
50774;BME280;36745;48.544;8.918;2023-08-31T04:52:50;96991.25;;;11.88;100.00
50774;BME280;36745;48.544;8.918;2023-08-31T04:56:10;96986.06;;;11.90;100.00
50774;BME280;36745;48.544;8.918;2023-08-31T04:59:30;96994.50;;;11.87;100.00
50774;BME280;36745;48.544;8.918;2023-08-31T05:02:50;96991.56;;;11.81;100.00
50774;BME280;36745;48.544;8.918;2023-08-31T05:06:10;96989.09;;;11.83;100.00
50774;BME280;36745;48.544;8.918;2023-08-31T05:09:30;96989.75;;;11.87;100.00
50774;BME280;36745;48.544;8.918;2023-08-31T05:12:54;97007.88;;;11.97;100.00
50774;BME280;36745;48.544;8.918;2023-08-31T05:16:14;97006.34;;;12.05;100.00
50774;BME280;36745;48.544;8.918;2023-08-31T05:19:33;97002.84;;;12.14;100.00
50774;BME280;36745;48.544;8.918;2023-08-31T05:22:53;97005.16;;;12.25;100.00
50774;BME280;36745;48.544;8.918;2023-08-31T05:26:13;97010.06;;;12.30;100.00
50774;BME280;36745;48.544;8.918;2023-08-31T05:29:34;97012.34;;;12.31;100.00
50774;BME280;36745;48.544;8.918;2023-08-31T05:32:54;97013.78;;;12.36;100.00
50774;BME280;36745;48.544;8.918;2023-08-31T05:36:14;97018.97;;;12.34;100.00
50774;BME280;36745;48.544;8.918;2023-08-31T05:39:34;97021.75;;;12.34;100.00
50774;BME280;36745;48.544;8.918;2023-08-31T05:42:54;97038.94;;;12.38;100.00
50774;BME280;36745;48.544;8.918;2023-08-31T05:46:13;97042.31;;;12.42;100.00
50774;BME280;36745;48.544;8.918;2023-08-31T05:49:33;97037.59;;;12.51;100.00
50774;BME280;36745;48.544;8.918;2023-08-31T05:52:54;97049.25;;;12.55;100.00
50774;BME280;36745;48.544;8.918;2023-08-31T05:56:14;97046.66;;;12.61;100.00
50774;BME280;36745;48.544;8.918;2023-08-31T05:59:33;97056.31;;;12.66;100.00
50774;BME280;36745;48.544;8.918;2023-08-31T06:02:53;97051.13;;;12.68;100.00
50774;BME280;36745;48.544;8.918;2023-08-31T06:06:13;97052.16;;;12.70;100.00
50774;BME280;36745;48.544;8.918;2023-08-31T06:09:33;97045.41;;;12.71;100.00
50774;BME280;36745;48.544;8.918;2023-08-31T06:12:53;97053.09;;;12.76;100.00
50774;BME280;36745;48.544;8.918;2023-08-31T06:16:12;97057.72;;;12.79;100.00
50774;BME280;36745;48.544;8.918;2023-08-31T06:19:32;97056.97;;;12.79;100.00
50774;BME280;36745;48.544;8.918;2023-08-31T06:22:52;97059.25;;;12.80;100.00
50774;BME280;36745;48.544;8.918;2023-08-31T06:26:12;97060.94;;;12.87;100.00
50774;BME280;36745;48.544;8.918;2023-08-31T06:29:31;97048.63;;;12.97;100.00
50774;BME280;36745;48.544;8.918;2023-08-31T06:32:51;97052.75;;;13.38;100.00
50774;BME280;36745;48.544;8.918;2023-08-31T06:36:11;97060.63;;;13.81;100.00
50774;BME280;36745;48.544;8.918;2023-08-31T06:39:31;97072.94;;;14.13;100.00
50774;BME280;36745;48.544;8.918;2023-08-31T06:42:51;97072.97;;;14.37;100.00
50774;BME280;36745;48.544;8.918;2023-08-31T06:46:10;97077.03;;;14.75;100.00
50774;BME280;36745;48.544;8.918;2023-08-31T06:49:30;97082.09;;;15.00;100.00
50774;BME280;36745;48.544;8.918;2023-08-31T06:52:52;97079.66;;;15.31;100.00
50774;BME280;36745;48.544;8.918;2023-08-31T06:56:12;97086.34;;;15.39;100.00
50774;BME280;36745;48.544;8.918;2023-08-31T06:59:32;97084.28;;;15.64;100.00
50774;BME280;36745;48.544;8.918;2023-08-31T07:02:51;97080.84;;;15.69;100.00
50774;BME280;36745;48.544;8.918;2023-08-31T07:06:12;97083.69;;;15.89;100.00
50774;BME280;36745;48.544;8.918;2023-08-31T07:09:31;97090.88;;;15.95;100.00
50774;BME280;36745;48.544;8.918;2023-08-31T07:12:51;97090.28;;;16.06;100.00
50774;BME280;36745;48.544;8.918;2023-08-31T07:16:11;97093.63;;;16.10;100.00
50774;BME280;36745;48.544;8.918;2023-08-31T07:19:31;97095.66;;;15.95;100.00
50774;BME280;36745;48.544;8.918;2023-08-31T07:22:51;97108.22;;;16.05;100.00
50774;BME280;36745;48.544;8.918;2023-08-31T07:26:11;97113.28;;;16.07;100.00
50774;BME280;36745;48.544;8.918;2023-08-31T07:29:30;97116.03;;;16.21;100.00
50774;BME280;36745;48.544;8.918;2023-08-31T07:32:50;97118.59;;;16.40;100.00
50774;BME280;36745;48.544;8.918;2023-08-31T07:36:10;97115.03;;;16.39;100.00
50774;BME280;36745;48.544;8.918;2023-08-31T07:39:30;97117.06;;;16.38;100.00
50774;BME280;36745;48.544;8.918;2023-08-31T07:42:50;97109.91;;;16.52;100.00
50774;BME280;36745;48.544;8.918;2023-08-31T07:46:10;97104.16;;;16.56;100.00
50774;BME280;36745;48.544;8.918;2023-08-31T07:49:30;97118.31;;;16.37;100.00
50774;BME280;36745;48.544;8.918;2023-08-31T07:52:50;97116.25;;;16.18;98.13
50774;BME280;36745;48.544;8.918;2023-08-31T07:56:09;97121.16;;;16.43;100.00
50774;BME280;36745;48.544;8.918;2023-08-31T07:59:29;97109.00;;;16.41;96.07
50774;BME280;36745;48.544;8.918;2023-08-31T08:02:49;97109.25;;;16.22;97.23
50774;BME280;36745;48.544;8.918;2023-08-31T08:06:09;97112.66;;;16.32;95.31
50774;BME280;36745;48.544;8.918;2023-08-31T08:09:29;97121.59;;;16.21;94.14
50774;BME280;36745;48.544;8.918;2023-08-31T08:12:51;97131.91;;;16.50;95.65
50774;BME280;36745;48.544;8.918;2023-08-31T08:16:11;97126.69;;;16.72;94.74
50774;BME280;36745;48.544;8.918;2023-08-31T08:19:31;97133.28;;;16.95;92.93
50774;BME280;36745;48.544;8.918;2023-08-31T08:22:51;97132.72;;;16.91;92.75
50774;BME280;36745;48.544;8.918;2023-08-31T08:26:13;97134.13;;;16.81;89.64
50774;BME280;36745;48.544;8.918;2023-08-31T08:29:33;97129.25;;;16.96;91.01
50774;BME280;36745;48.544;8.918;2023-08-31T08:32:53;97128.47;;;16.96;87.01
50774;BME280;36745;48.544;8.918;2023-08-31T08:36:13;97135.81;;;16.93;86.67
50774;BME280;36745;48.544;8.918;2023-08-31T08:39:32;97133.22;;;17.10;87.90
50774;BME280;36745;48.544;8.918;2023-08-31T08:42:53;97139.28;;;17.08;87.51
50774;BME280;36745;48.544;8.918;2023-08-31T08:46:13;97125.75;;;17.01;82.04
50774;BME280;36745;48.544;8.918;2023-08-31T08:49:33;97138.28;;;17.11;83.90
50774;BME280;36745;48.544;8.918;2023-08-31T08:52:55;97140.88;;;17.15;82.57
50774;BME280;36745;48.544;8.918;2023-08-31T08:56:15;97143.66;;;17.15;81.01
50774;BME280;36745;48.544;8.918;2023-08-31T08:59:35;97141.34;;;17.34;81.86
50774;BME280;36745;48.544;8.918;2023-08-31T09:02:55;97147.47;;;17.38;79.75
50774;BME280;36745;48.544;8.918;2023-08-31T09:06:15;97157.91;;;17.23;77.32
50774;BME280;36745;48.544;8.918;2023-08-31T09:09:52;97149.84;;;17.25;77.20
50774;BME280;36745;48.544;8.918;2023-08-31T09:13:13;97159.59;;;17.35;75.38
50774;BME280;36745;48.544;8.918;2023-08-31T09:16:35;97165.41;;;17.57;75.55
50774;BME280;36745;48.544;8.918;2023-08-31T09:20:01;97171.00;;;17.57;73.81
50774;BME280;36745;48.544;8.918;2023-08-31T09:23:23;97169.31;;;17.45;72.08
50774;BME280;36745;48.544;8.918;2023-08-31T09:26:54;97173.66;;;17.46;70.88
50774;BME280;36745;48.544;8.918;2023-08-31T09:30:14;97167.91;;;17.75;70.58
50774;BME280;36745;48.544;8.918;2023-08-31T09:33:34;97169.94;;;18.00;70.20
50774;BME280;36745;48.544;8.918;2023-08-31T09:36:55;97179.53;;;17.99;68.29
50774;BME280;36745;48.544;8.918;2023-08-31T09:40:15;97184.41;;;18.04;68.06
50774;BME280;36745;48.544;8.918;2023-08-31T09:43:35;97176.13;;;18.16;69.17
50774;BME280;36745;48.544;8.918;2023-08-31T09:46:55;97189.03;;;18.39;69.54
50774;BME280;36745;48.544;8.918;2023-08-31T09:50:15;97182.09;;;18.60;66.78
50774;BME280;36745;48.544;8.918;2023-08-31T09:53:36;97187.47;;;18.38;65.26
50774;BME280;36745;48.544;8.918;2023-08-31T09:56:58;97192.44;;;18.23;64.76
50774;BME280;36745;48.544;8.918;2023-08-31T10:00:19;97193.38;;;18.14;65.83
50774;BME280;36745;48.544;8.918;2023-08-31T10:03:39;97202.97;;;18.08;63.76
50774;BME280;36745;48.544;8.918;2023-08-31T10:06:59;97185.84;;;18.26;65.26
50774;BME280;36745;48.544;8.918;2023-08-31T10:10:19;97192.81;;;18.67;65.43
50774;BME280;36745;48.544;8.918;2023-08-31T10:13:42;97189.88;;;18.88;64.70
50774;BME280;36745;48.544;8.918;2023-08-31T10:17:03;97199.44;;;18.75;63.49
50774;BME280;36745;48.544;8.918;2023-08-31T10:20:23;97189.28;;;18.72;62.56
50774;BME280;36745;48.544;8.918;2023-08-31T10:23:49;97189.78;;;18.71;62.50
50774;BME280;36745;48.544;8.918;2023-08-31T10:27:17;97197.84;;;19.06;62.53
50774;BME280;36745;48.544;8.918;2023-08-31T10:30:37;97184.75;;;18.80;61.11
50774;BME280;36745;48.544;8.918;2023-08-31T10:34:05;97185.94;;;18.68;61.79
50774;BME280;36745;48.544;8.918;2023-08-31T10:37:29;97186.28;;;18.81;60.39
50774;BME280;36745;48.544;8.918;2023-08-31T10:44:32;97181.41;;;18.71;58.50
50774;BME280;36745;48.544;8.918;2023-08-31T10:48:00;97181.09;;;18.63;58.92
50774;BME280;36745;48.544;8.918;2023-08-31T10:51:25;97175.41;;;18.52;59.39
50774;BME280;36745;48.544;8.918;2023-08-31T10:54:46;97175.72;;;18.54;59.64
50774;BME280;36745;48.544;8.918;2023-08-31T10:58:10;97179.94;;;18.81;58.28
50774;BME280;36745;48.544;8.918;2023-08-31T11:02:01;97180.47;;;18.85;58.13
50774;BME280;36745;48.544;8.918;2023-08-31T11:05:24;97178.72;;;18.88;58.05
50774;BME280;36745;48.544;8.918;2023-08-31T11:08:43;97180.56;;;19.02;58.21
50774;BME280;36745;48.544;8.918;2023-08-31T11:12:03;97176.91;;;19.38;58.57
50774;BME280;36745;48.544;8.918;2023-08-31T11:15:25;97161.72;;;19.50;57.98
50774;BME280;36745;48.544;8.918;2023-08-31T11:18:45;97167.03;;;19.43;57.21
50774;BME280;36745;48.544;8.918;2023-08-31T11:22:05;97165.47;;;19.36;56.99
50774;BME280;36745;48.544;8.918;2023-08-31T11:25:26;97169.47;;;19.18;55.22
50774;BME280;36745;48.544;8.918;2023-08-31T11:28:46;97165.94;;;19.23;55.82
50774;BME280;36745;48.544;8.918;2023-08-31T11:32:05;97169.59;;;19.46;55.69
50774;BME280;36745;48.544;8.918;2023-08-31T11:35:32;97164.84;;;19.75;55.73
50774;BME280;36745;48.544;8.918;2023-08-31T11:38:53;97159.31;;;20.08;54.27
50774;BME280;36745;48.544;8.918;2023-08-31T11:42:14;97161.56;;;20.04;52.39
50774;BME280;36745;48.544;8.918;2023-08-31T11:45:36;97166.16;;;20.01;52.90
50774;BME280;36745;48.544;8.918;2023-08-31T11:48:59;97167.69;;;19.86;53.67
50774;BME280;36745;48.544;8.918;2023-08-31T11:52:19;97164.91;;;20.02;54.50
50774;BME280;36745;48.544;8.918;2023-08-31T11:55:49;97163.34;;;19.90;54.12
50774;BME280;36745;48.544;8.918;2023-08-31T11:59:10;97155.75;;;20.24;54.54
50774;BME280;36745;48.544;8.918;2023-08-31T12:02:35;97160.59;;;20.40;53.79
50774;BME280;36745;48.544;8.918;2023-08-31T12:05:55;97156.78;;;20.38;53.16
50774;BME280;36745;48.544;8.918;2023-08-31T12:09:17;97148.34;;;20.16;52.66
50774;BME280;36745;48.544;8.918;2023-08-31T12:12:37;97150.16;;;20.07;53.08
50774;BME280;36745;48.544;8.918;2023-08-31T12:15:57;97151.94;;;20.33;53.46
50774;BME280;36745;48.544;8.918;2023-08-31T12:19:17;97158.78;;;20.26;52.02
50774;BME280;36745;48.544;8.918;2023-08-31T12:22:37;97153.72;;;20.08;52.56
50774;BME280;36745;48.544;8.918;2023-08-31T12:25:57;97159.06;;;20.28;53.35
50774;BME280;36745;48.544;8.918;2023-08-31T12:29:17;97151.41;;;20.23;52.38
50774;BME280;36745;48.544;8.918;2023-08-31T12:32:36;97147.59;;;20.26;52.38
50774;BME280;36745;48.544;8.918;2023-08-31T12:35:56;97136.88;;;20.30;52.46
50774;BME280;36745;48.544;8.918;2023-08-31T12:39:16;97137.94;;;20.38;52.40
50774;BME280;36745;48.544;8.918;2023-08-31T12:42:36;97124.19;;;20.29;51.80
50774;BME280;36745;48.544;8.918;2023-08-31T12:45:56;97125.97;;;20.16;51.56
50774;BME280;36745;48.544;8.918;2023-08-31T12:49:16;97133.34;;;20.02;51.10
50774;BME280;36745;48.544;8.918;2023-08-31T12:52:36;97132.59;;;19.90;50.43
50774;BME280;36745;48.544;8.918;2023-08-31T12:55:55;97136.16;;;19.96;50.97
50774;BME280;36745;48.544;8.918;2023-08-31T12:59:15;97128.75;;;20.27;51.42
50774;BME280;36745;48.544;8.918;2023-08-31T13:02:35;97134.34;;;20.21;51.08
50774;BME280;36745;48.544;8.918;2023-08-31T13:05:55;97134.63;;;20.01;50.95
50774;BME280;36745;48.544;8.918;2023-08-31T13:09:15;97137.91;;;19.83;51.06
50774;BME280;36745;48.544;8.918;2023-08-31T13:12:35;97139.16;;;19.70;50.71
50774;BME280;36745;48.544;8.918;2023-08-31T13:15:55;97141.16;;;19.53;50.72
50774;BME280;36745;48.544;8.918;2023-08-31T13:19:14;97132.78;;;19.53;51.30
50774;BME280;36745;48.544;8.918;2023-08-31T13:22:34;97137.63;;;19.58;51.73
50774;BME280;36745;48.544;8.918;2023-08-31T13:25:54;97131.00;;;19.67;51.85
50774;BME280;36745;48.544;8.918;2023-08-31T13:29:15;97127.22;;;19.64;51.90
50774;BME280;36745;48.544;8.918;2023-08-31T13:32:36;97119.06;;;19.66;52.15
50774;BME280;36745;48.544;8.918;2023-08-31T13:35:59;97125.59;;;19.41;51.65
50774;BME280;36745;48.544;8.918;2023-08-31T13:39:19;97127.13;;;19.42;51.72
50774;BME280;36745;48.544;8.918;2023-08-31T13:42:52;97132.97;;;19.44;51.93
50774;BME280;36745;48.544;8.918;2023-08-31T13:46:12;97144.44;;;19.46;52.02
50774;BME280;36745;48.544;8.918;2023-08-31T13:49:32;97137.06;;;19.54;52.64
50774;BME280;36745;48.544;8.918;2023-08-31T13:52:52;97143.69;;;19.46;52.25
50774;BME280;36745;48.544;8.918;2023-08-31T13:56:12;97143.34;;;19.38;52.68
50774;BME280;36745;48.544;8.918;2023-08-31T13:59:32;97147.91;;;19.30;52.75
50774;BME280;36745;48.544;8.918;2023-08-31T14:02:51;97144.09;;;19.33;53.28
50774;BME280;36745;48.544;8.918;2023-08-31T14:06:11;97132.19;;;19.38;53.75
50774;BME280;36745;48.544;8.918;2023-08-31T14:09:31;97144.84;;;19.28;53.26
50774;BME280;36745;48.544;8.918;2023-08-31T14:12:51;97143.06;;;19.19;53.64
50774;BME280;36745;48.544;8.918;2023-08-31T14:16:11;97137.44;;;19.14;53.06
50774;BME280;36745;48.544;8.918;2023-08-31T14:19:32;97135.16;;;19.18;53.20
50774;BME280;36745;48.544;8.918;2023-08-31T14:22:52;97123.06;;;19.38;53.39
50774;BME280;36745;48.544;8.918;2023-08-31T14:26:12;97125.81;;;19.26;52.50
50774;BME280;36745;48.544;8.918;2023-08-31T14:29:32;97122.44;;;19.17;52.88
50774;BME280;36745;48.544;8.918;2023-08-31T14:32:54;97114.03;;;19.11;52.89
50774;BME280;36745;48.544;8.918;2023-08-31T14:36:15;97117.88;;;19.14;53.01
50774;BME280;36745;48.544;8.918;2023-08-31T14:39:34;97127.34;;;19.33;53.68
50774;BME280;36745;48.544;8.918;2023-08-31T14:42:54;97127.19;;;19.53;53.23
50774;BME280;36745;48.544;8.918;2023-08-31T14:46:14;97128.38;;;19.36;52.86
50774;BME280;36745;48.544;8.918;2023-08-31T14:49:34;97127.09;;;19.31;53.43
50774;BME280;36745;48.544;8.918;2023-08-31T14:52:54;97130.91;;;19.34;53.35
50774;BME280;36745;48.544;8.918;2023-08-31T14:56:13;97127.59;;;19.35;53.55
50774;BME280;36745;48.544;8.918;2023-08-31T14:59:33;97129.13;;;19.36;53.42
50774;BME280;36745;48.544;8.918;2023-08-31T15:02:54;97139.03;;;19.32;53.50
50774;BME280;36745;48.544;8.918;2023-08-31T15:06:14;97130.38;;;19.24;53.06
50774;BME280;36745;48.544;8.918;2023-08-31T15:09:33;97144.28;;;19.13;53.72
50774;BME280;36745;48.544;8.918;2023-08-31T15:12:53;97142.53;;;19.15;54.64
50774;BME280;36745;48.544;8.918;2023-08-31T15:16:17;97145.06;;;19.13;54.52
50774;BME280;36745;48.544;8.918;2023-08-31T15:19:37;97144.53;;;19.09;54.51
50774;BME280;36745;48.544;8.918;2023-08-31T15:22:57;97151.88;;;19.07;54.84
50774;BME280;36745;48.544;8.918;2023-08-31T15:26:16;97161.53;;;19.06;55.06
50774;BME280;36745;48.544;8.918;2023-08-31T15:29:38;97167.09;;;18.95;55.51
50774;BME280;36745;48.544;8.918;2023-08-31T15:33:01;97154.59;;;18.90;55.70
50774;BME280;36745;48.544;8.918;2023-08-31T15:36:22;97161.16;;;18.81;55.69
50774;BME280;36745;48.544;8.918;2023-08-31T15:39:42;97160.13;;;18.79;55.55
50774;BME280;36745;48.544;8.918;2023-08-31T15:43:02;97149.94;;;18.76;55.63
50774;BME280;36745;48.544;8.918;2023-08-31T15:46:21;97156.31;;;18.76;56.13
50774;BME280;36745;48.544;8.918;2023-08-31T15:49:41;97152.00;;;18.81;56.09
50774;BME280;36745;48.544;8.918;2023-08-31T15:53:01;97152.78;;;18.81;56.01
50774;BME280;36745;48.544;8.918;2023-08-31T15:56:22;97144.66;;;18.78;56.23
50774;BME280;36745;48.544;8.918;2023-08-31T15:59:42;97148.94;;;18.79;56.38
50774;BME280;36745;48.544;8.918;2023-08-31T16:03:01;97150.47;;;18.80;56.20
50774;BME280;36745;48.544;8.918;2023-08-31T16:06:21;97147.69;;;18.80;56.14
50774;BME280;36745;48.544;8.918;2023-08-31T16:09:41;97151.25;;;18.80;56.44
50774;BME280;36745;48.544;8.918;2023-08-31T16:13:01;97154.31;;;18.82;56.39
50774;BME280;36745;48.544;8.918;2023-08-31T16:16:23;97154.50;;;18.73;56.61
50774;BME280;36745;48.544;8.918;2023-08-31T16:19:42;97156.25;;;18.65;56.93
50774;BME280;36745;48.544;8.918;2023-08-31T16:23:02;97155.97;;;18.63;57.49
50774;BME280;36745;48.544;8.918;2023-08-31T16:26:22;97157.47;;;18.59;57.40
50774;BME280;36745;48.544;8.918;2023-08-31T16:29:42;97166.13;;;18.61;57.46
50774;BME280;36745;48.544;8.918;2023-08-31T16:33:02;97156.69;;;18.58;58.26
50774;BME280;36745;48.544;8.918;2023-08-31T16:36:22;97160.53;;;18.61;58.22
50774;BME280;36745;48.544;8.918;2023-08-31T16:39:42;97160.19;;;18.53;58.63
50774;BME280;36745;48.544;8.918;2023-08-31T16:43:02;97162.97;;;18.53;58.58
50774;BME280;36745;48.544;8.918;2023-08-31T16:46:22;97158.66;;;18.52;58.48
50774;BME280;36745;48.544;8.918;2023-08-31T16:49:42;97159.13;;;18.45;59.63
50774;BME280;36745;48.544;8.918;2023-08-31T16:53:03;97156.78;;;18.38;59.56
50774;BME280;36745;48.544;8.918;2023-08-31T16:56:23;97153.72;;;18.36;60.10
50774;BME280;36745;48.544;8.918;2023-08-31T16:59:43;97159.81;;;18.34;60.04
50774;BME280;36745;48.544;8.918;2023-08-31T17:03:03;97160.03;;;18.31;59.83
50774;BME280;36745;48.544;8.918;2023-08-31T17:06:23;97151.34;;;18.23;60.94
50774;BME280;36745;48.544;8.918;2023-08-31T17:09:44;97157.44;;;18.22;60.83
50774;BME280;36745;48.544;8.918;2023-08-31T17:13:04;97144.19;;;18.17;61.03
50774;BME280;36745;48.544;8.918;2023-08-31T17:16:24;97147.22;;;18.13;61.32
50774;BME280;36745;48.544;8.918;2023-08-31T17:19:44;97147.72;;;18.12;61.62
50774;BME280;36745;48.544;8.918;2023-08-31T17:23:05;97147.72;;;18.12;62.02
50774;BME280;36745;48.544;8.918;2023-08-31T17:26:26;97143.88;;;18.09;62.59
50774;BME280;36745;48.544;8.918;2023-08-31T17:29:45;97150.22;;;18.10;63.23
50774;BME280;36745;48.544;8.918;2023-08-31T17:33:05;97151.47;;;18.09;63.16
50774;BME280;36745;48.544;8.918;2023-08-31T17:36:25;97149.97;;;18.08;63.37
50774;BME280;36745;48.544;8.918;2023-08-31T17:39:45;97142.84;;;18.07;64.05
50774;BME280;36745;48.544;8.918;2023-08-31T17:43:05;97142.53;;;17.99;63.76